Avis, Pennsylvania
Current Conditions -  °F | °C
As of 4:54 AM on Saturday 25 Oct 2014 (Local Time) from KIPT Reporting Station
Few Clouds Few Clouds  
Wind Chill: 39°   Ceiling: Unl
Heat Index: 39°   Visibility: 10mi
Dew Point: 33°   Wind: 3mph
Humidity: 79%   Direction: 330°NNW
Pressure: 29.92"   Gusts: NA
Location:  41.18°N, 77.31°W
Report Text: KIPT 250854Z AUTO 33003KT 10SM FEW060 04/01 A2992 RMK AO2 SLP131 T00390006 58003
Loading
Personal Weather Stations






























Interactive Weather Map
Tropical Storm Tracking
New forecast layout! Learn more

10-Day Weather Forecast

Advertisements
Track Severe Weather on mobile